Time;durP1;ratioP1;P1;durP2;ratioP2;P2;SDS_P1;SDS_P2;PMS_P1;PMS_P2;Temp;Humidity;BMP_temperature;BMP_pressure;BME280_temperature;BME280_humidity;BME280_pressure;Samples;Min_cycle;Max_cycle;Signal;HPM_P1;HPM_P2
2023/05/29 00:02:03;;;;;;;1.33;1.20;;;15.40;94.10;;;;;;5094598;28;20455;-87
2023/05/29 00:04:29;;;;;;;3.10;1.70;;;15.30;93.60;;;;;;5094503;28;20467;-87
2023/05/29 00:06:56;;;;;;;3.07;2.10;;;15.30;94.20;;;;;;5094226;28;20962;-87
2023/05/29 00:09:25;;;;;;;2.33;1.73;;;15.20;94.30;;;;;;5094373;28;20471;-87
2023/05/29 00:11:52;;;;;;;2.20;1.73;;;15.10;95.10;;;;;;5095038;28;20876;-87
2023/05/29 00:14:19;;;;;;;3.30;1.90;;;15.10;95.30;;;;;;5093970;28;20997;-87
2023/05/29 00:16:46;;;;;;;3.33;2.37;;;15.10;95.20;;;;;;5094519;28;20443;-87
2023/05/29 00:19:13;;;;;;;2.73;1.30;;;15.00;95.60;;;;;;5094230;28;20534;-86
2023/05/29 00:21:40;;;;;;;2.90;1.70;;;15.00;95.70;;;;;;5094049;28;20486;-87
2023/05/29 00:24:07;;;;;;;2.33;1.43;;;14.90;95.70;;;;;;5094198;28;20526;-87
2023/05/29 00:26:35;;;;;;;2.97;1.20;;;14.90;95.40;;;;;;5094060;28;20459;-87
2023/05/29 00:29:02;;;;;;;3.33;1.63;;;14.90;95.90;;;;;;5093903;28;20569;-87
2023/05/29 00:31:29;;;;;;;1.97;1.23;;;14.90;96.30;;;;;;5094104;28;20448;-86
2023/05/29 00:33:55;;;;;;;1.23;1.10;;;14.80;96.50;;;;;;5094270;28;20487;-87
2023/05/29 00:36:23;;;;;;;2.27;2.03;;;14.80;96.80;;;;;;5094209;28;20450;-87
2023/05/29 00:38:50;;;;;;;2.90;1.63;;;14.70;96.80;;;;;;5094027;28;20472;-87
2023/05/29 00:41:17;;;;;;;1.70;1.50;;;14.80;96.90;;;;;;5094038;28;20452;-87
2023/05/29 00:43:45;;;;;;;3.57;1.80;;;14.70;97.10;;;;;;5094113;28;20451;-87
2023/05/29 00:46:14;;;;;;;2.30;1.80;;;14.60;97.20;;;;;;5094014;28;20451;-87
2023/05/29 00:48:42;;;;;;;2.10;1.43;;;14.60;97.60;;;;;;5093829;28;20948;-86
2023/05/29 00:51:10;;;;;;;3.40;1.93;;;14.60;97.80;;;;;;5093959;28;20451;-87
2023/05/29 00:53:38;;;;;;;4.40;1.53;;;14.50;97.90;;;;;;5093704;28;20448;-87
2023/05/29 00:56:05;;;;;;;5.33;2.17;;;14.50;98.30;;;;;;5093414;28;20468;-87
2023/05/29 00:58:32;;;;;;;1.30;1.20;;;14.40;98.40;;;;;;5093615;28;20437;-87
2023/05/29 01:01:01;;;;;;;4.70;1.77;;;14.40;98.70;;;;;;5093652;28;20451;-87
2023/05/29 01:03:28;;;;;;;3.70;1.40;;;14.40;99.50;;;;;;5093398;28;20448;-86
2023/05/29 01:05:55;;;;;;;1.83;1.07;;;14.40;99.20;;;;;;5093705;28;20517;-87
2023/05/29 01:08:22;;;;;;;10.10;1.70;;;14.40;98.90;;;;;;5093358;28;20448;-87
2023/05/29 01:10:53;;;;;;;3.53;1.60;;;14.40;99.30;;;;;;5094653;28;20808;-87
2023/05/29 01:13:24;;;;;;;1.50;1.30;;;14.40;98.90;;;;;;5097774;28;20432;-87
2023/05/29 01:15:55;;;;;;;3.73;1.40;;;14.30;98.80;;;;;;5097649;28;20463;-87
2023/05/29 01:18:35;;;;;;;3.17;1.50;;;14.30;99.50;;;;;;5097762;28;20435;-87
2023/05/29 01:21:10;;;;;;;2.33;1.80;;;14.30;99.90;;;;;;5097215;28;20515;-87
2023/05/29 01:24:03;;;;;;;1.93;1.50;;;14.30;99.90;;;;;;5098161;28;20436;-87
2023/05/29 01:26:52;;;;;;;4.47;1.63;;;14.20;99.90;;;;;;5097828;28;20427;-87
2023/05/29 01:29:21;;;;;;;1.70;1.50;;;14.10;99.90;;;;;;5097499;28;20533;-87
2023/05/29 01:31:48;;;;;;;23.23;2.20;;;14.10;99.90;;;;;;5097605;28;20471;-87
2023/05/29 01:34:15;;;;;;;2.27;1.40;;;14.10;99.90;;;;;;5096967;28;20464;-87
2023/05/29 01:36:42;;;;;;;3.27;1.67;;;14.00;99.90;;;;;;5098299;28;20440;-87
2023/05/29 01:39:10;;;;;;;2.50;1.63;;;14.00;99.90;;;;;;5096972;28;20439;-87
2023/05/29 01:41:37;;;;;;;3.80;1.60;;;14.00;99.90;;;;;;5097297;28;20436;-87
2023/05/29 01:44:08;;;;;;;3.13;1.83;;;14.00;99.90;;;;;;5097115;28;20439;-87
2023/05/29 01:46:36;;;;;;;2.30;1.63;;;14.00;99.90;;;;;;5097316;28;20436;-87
2023/05/29 01:49:03;;;;;;;1.67;1.57;;;14.00;99.90;;;;;;5097010;28;20478;-87
2023/05/29 01:51:31;;;;;;;1.57;1.47;;;13.90;99.90;;;;;;5096668;28;20951;-87
2023/05/29 01:53:58;;;;;;;2.00;1.20;;;13.90;99.90;;;;;;5099033;28;20483;-86
2023/05/29 01:56:27;;;;;;;3.90;1.67;;;13.80;99.90;;;;;;5096985;28;20475;-87
2023/05/29 01:58:54;;;;;;;1.60;1.10;;;13.80;99.90;;;;;;5096879;28;20809;-87
2023/05/29 02:01:22;;;;;;;4.63;1.50;;;13.80;99.90;;;;;;5096853;28;20820;-87
2023/05/29 02:03:49;;;;;;;1.77;1.10;;;13.70;99.90;;;;;;5096703;28;20797;-87
2023/05/29 02:06:16;;;;;;;3.63;1.87;;;13.70;99.90;;;;;;5096758;28;20444;-87
2023/05/29 02:08:43;;;;;;;6.27;1.50;;;13.70;99.90;;;;;;5096714;28;20447;-86
2023/05/29 02:11:10;;;;;;;3.07;1.73;;;13.70;99.90;;;;;;5096640;28;20480;-87
2023/05/29 02:13:38;;;;;;;6.47;1.80;;;13.70;99.90;;;;;;5096283;28;20443;-87
2023/05/29 02:16:05;;;;;;;4.43;1.60;;;13.60;99.90;;;;;;5096526;28;20804;-87
2023/05/29 02:18:34;;;;;;;2.30;1.77;;;13.60;99.90;;;;;;5096499;28;20447;-87
2023/05/29 02:21:01;;;;;;;1.27;1.10;;;13.50;99.90;;;;;;5096272;28;20480;-87
2023/05/29 02:23:27;;;;;;;7.53;1.67;;;13.50;99.90;;;;;;5095591;28;20456;-87
2023/05/29 02:25:54;;;;;;;9.70;2.07;;;13.50;99.90;;;;;;5096358;28;20460;-87
2023/05/29 02:28:21;;;;;;;5.90;2.47;;;13.40;99.90;;;;;;5096349;28;20451;-87
2023/05/29 02:30:48;;;;;;;4.13;1.87;;;13.40;99.90;;;;;;5096292;28;20845;-87
2023/05/29 02:33:15;;;;;;;1.63;1.40;;;13.30;99.90;;;;;;5096289;28;20455;-87
2023/05/29 02:35:43;;;;;;;2.73;1.83;;;13.30;99.90;;;;;;5096046;28;20476;-87
2023/05/29 02:38:10;;;;;;;2.70;1.70;;;13.20;99.90;;;;;;5096420;28;20440;-87
2023/05/29 02:40:37;;;;;;;2.83;1.20;;;13.20;99.90;;;;;;5096170;28;20931;-87
2023/05/29 02:43:03;;;;;;;6.70;1.67;;;13.20;99.90;;;;;;5095990;28;20452;-87
2023/05/29 02:45:30;;;;;;;2.40;2.03;;;13.10;99.90;;;;;;5095886;28;20472;-87
2023/05/29 02:47:57;;;;;;;1.37;1.27;;;13.10;99.90;;;;;;5095996;28;20447;-87
2023/05/29 02:50:24;;;;;;;1.23;1.20;;;13.10;99.90;;;;;;5095773;28;20471;-87
2023/05/29 02:52:52;;;;;;;2.80;1.73;;;13.10;99.90;;;;;;5095811;28;20448;-87
2023/05/29 02:55:18;;;;;;;3.13;1.90;;;13.00;99.90;;;;;;5095727;28;20475;-87
2023/05/29 02:57:45;;;;;;;2.60;1.63;;;13.00;99.90;;;;;;5095765;28;20482;-87
2023/05/29 03:00:13;;;;;;;2.93;1.40;;;12.90;99.90;;;;;;5095661;28;20451;-87
2023/05/29 03:02:40;;;;;;;4.10;1.37;;;12.90;99.90;;;;;;5095232;28;20448;-87
2023/05/29 03:05:07;;;;;;;5.50;1.20;;;12.90;99.90;;;;;;5095549;28;20476;-87
2023/05/29 03:07:34;;;;;;;5.37;1.83;;;12.80;99.90;;;;;;5095178;28;20448;-87
2023/05/29 03:10:03;;;;;;;2.77;2.00;;;12.80;99.90;;;;;;5095462;28;20472;-87
2023/05/29 03:12:30;;;;;;;3.50;1.77;;;12.80;99.90;;;;;;5095071;28;20459;-87
2023/05/29 03:14:57;;;;;;;4.63;1.30;;;12.80;99.90;;;;;;5095339;28;20476;-87
2023/05/29 03:17:23;;;;;;;1.90;1.47;;;12.80;99.90;;;;;;5095852;28;20459;-87
2023/05/29 03:19:51;;;;;;;3.10;1.80;;;12.70;99.90;;;;;;5094855;28;20476;-86
2023/05/29 03:22:18;;;;;;;3.23;1.63;;;12.70;99.90;;;;;;5095277;28;20521;-87
2023/05/29 03:24:45;;;;;;;5.43;1.37;;;12.80;99.90;;;;;;5095043;28;20468;-86
2023/05/29 03:27:13;;;;;;;1.47;1.17;;;12.80;99.90;;;;;;5095234;28;20451;-86
2023/05/29 03:29:40;;;;;;;2.60;1.83;;;12.80;99.90;;;;;;5095087;28;20480;-86
2023/05/29 03:32:07;;;;;;;2.17;1.30;;;12.80;99.90;;;;;;5095082;28;20458;-87
2023/05/29 03:34:34;;;;;;;2.73;1.50;;;12.80;99.90;;;;;;5094853;28;20468;-87
2023/05/29 03:37:01;;;;;;;3.37;1.50;;;12.90;99.90;;;;;;5095043;28;20448;-87
2023/05/29 03:39:28;;;;;;;4.57;1.23;;;12.90;99.90;;;;;;5094860;28;20978;-86
2023/05/29 03:41:55;;;;;;;1.50;1.23;;;12.90;99.90;;;;;;5094951;28;20450;-87
2023/05/29 03:44:23;;;;;;;2.40;1.20;;;12.90;99.90;;;;;;5094864;28;20464;-87
2023/05/29 03:46:50;;;;;;;3.53;1.47;;;12.90;99.90;;;;;;5094867;28;20444;-87
2023/05/29 03:49:17;;;;;;;2.43;0.97;;;12.90;99.90;;;;;;5095132;28;20448;-87
2023/05/29 03:51:44;;;;;;;1.40;1.17;;;12.90;99.90;;;;;;5094428;28;21011;-87
2023/05/29 03:54:11;;;;;;;1.77;1.20;;;12.90;99.90;;;;;;5094724;28;20831;-87
2023/05/29 03:56:37;;;;;;;3.77;1.73;;;12.80;99.90;;;;;;5094682;28;20535;-87
2023/05/29 03:59:04;;;;;;;2.10;1.20;;;12.80;99.90;;;;;;5094397;28;20431;-87
2023/05/29 04:01:32;;;;;;;3.37;1.63;;;12.80;99.90;;;;;;5095480;28;20447;-87
2023/05/29 04:03:59;;;;;;;2.37;1.30;;;12.70;99.90;;;;;;5094626;28;20484;-87
2023/05/29 04:06:26;;;;;;;1.93;1.20;;;12.80;99.90;;;;;;5094698;28;20436;-87
2023/05/29 04:08:53;;;;;;;3.27;1.50;;;12.80;99.90;;;;;;5094407;28;20447;-87
2023/05/29 04:11:22;;;;;;;3.63;1.60;;;12.80;99.90;;;;;;5094122;28;20485;-87
2023/05/29 04:13:48;;;;;;;2.17;1.60;;;12.80;99.90;;;;;;5094337;28;20816;-87
2023/05/29 04:16:15;;;;;;;1.97;1.80;;;12.80;99.90;;;;;;5094150;28;20425;-87
2023/05/29 04:18:43;;;;;;;2.80;1.00;;;12.90;99.90;;;;;;5094174;28;20443;-87
2023/05/29 04:21:11;;;;;;;5.27;1.40;;;12.90;99.90;;;;;;5094069;28;20472;-87
2023/05/29 04:23:37;;;;;;;2.03;1.20;;;12.90;99.90;;;;;;5094125;28;20538;-87
2023/05/29 04:26:05;;;;;;;2.33;1.67;;;13.00;99.90;;;;;;5094005;28;20468;-87
2023/05/29 04:28:32;;;;;;;1.23;1.13;;;13.00;99.90;;;;;;5093867;28;20939;-87
2023/05/29 04:30:59;;;;;;;3.20;1.53;;;13.00;99.90;;;;;;5094034;28;20483;-87
2023/05/29 04:33:28;;;;;;;3.03;1.87;;;13.10;99.90;;;;;;5094115;28;20972;-87
2023/05/29 04:35:56;;;;;;;2.97;1.40;;;13.10;99.90;;;;;;5094043;28;20476;-87
2023/05/29 04:38:24;;;;;;;2.90;1.70;;;13.10;99.90;;;;;;5094148;28;20456;-87
2023/05/29 04:40:52;;;;;;;1.53;1.40;;;13.20;99.90;;;;;;5093731;28;20932;-87
2023/05/29 04:43:19;;;;;;;2.03;1.60;;;13.20;99.90;;;;;;5093733;28;20451;-87
2023/05/29 04:45:45;;;;;;;2.37;1.50;;;13.30;99.90;;;;;;5093362;28;20979;-87
2023/05/29 04:48:12;;;;;;;3.57;1.87;;;13.30;99.90;;;;;;5093557;28;20448;-87
2023/05/29 04:50:39;;;;;;;3.70;1.10;;;13.40;99.90;;;;;;5093895;28;20541;-87
2023/05/29 04:53:07;;;;;;;2.50;1.53;;;13.40;99.90;;;;;;5093771;28;20927;-87
2023/05/29 04:55:34;;;;;;;3.20;1.80;;;13.40;99.90;;;;;;5094110;28;20460;-87
2023/05/29 04:58:01;;;;;;;1.40;1.30;;;13.50;99.90;;;;;;5093936;28;20820;-86
2023/05/29 05:00:27;;;;;;;1.77;1.60;;;13.50;99.90;;;;;;5093560;28;20992;-86
2023/05/29 05:02:55;;;;;;;2.83;1.33;;;13.50;99.90;;;;;;5094086;28;20440;-87
2023/05/29 05:05:22;;;;;;;5.47;1.77;;;13.70;99.90;;;;;;5093544;28;20979;-87
2023/05/29 05:07:48;;;;;;;2.70;1.53;;;13.70;99.90;;;;;;5093837;28;20447;-86
2023/05/29 05:10:17;;;;;;;2.10;1.30;;;13.80;99.90;;;;;;5093291;28;20475;-87
2023/05/29 05:12:43;;;;;;;3.57;1.37;;;13.90;99.90;;;;;;5093543;28;20448;-87
2023/05/29 05:15:11;;;;;;;1.93;1.30;;;13.90;99.90;;;;;;5093760;28;20464;-87
2023/05/29 05:17:38;;;;;;;3.53;1.40;;;14.00;99.90;;;;;;5093684;28;20521;-87
2023/05/29 05:20:05;;;;;;;3.90;2.97;;;14.00;99.90;;;;;;5093359;28;20472;-87
2023/05/29 05:22:32;;;;;;;4.27;2.17;;;14.10;99.90;;;;;;5093349;28;20452;-87
2023/05/29 05:25:00;;;;;;;1.70;1.20;;;14.20;99.90;;;;;;5093703;28;20840;-87
2023/05/29 05:27:28;;;;;;;3.23;1.70;;;14.20;99.90;;;;;;5093316;28;20978;-87
2023/05/29 05:29:55;;;;;;;4.17;1.80;;;14.40;99.90;;;;;;5093089;28;20455;-87
2023/05/29 05:32:22;;;;;;;2.47;1.50;;;14.50;99.90;;;;;;5093481;28;20448;-87
2023/05/29 05:34:48;;;;;;;2.20;2.00;;;14.50;99.90;;;;;;5093664;28;20471;-87
2023/05/29 05:37:15;;;;;;;8.03;2.23;;;14.60;99.90;;;;;;5093426;28;20451;-87
2023/05/29 05:39:42;;;;;;;8.00;1.10;;;14.70;99.90;;;;;;5093441;28;20483;-87
2023/05/29 05:42:09;;;;;;;4.43;1.77;;;14.70;99.90;;;;;;5093533;28;20443;-87
2023/05/29 05:44:37;;;;;;;1.73;1.20;;;14.80;99.90;;;;;;5093464;28;20555;-87
2023/05/29 05:47:04;;;;;;;1.30;1.00;;;14.90;99.90;;;;;;5094285;28;20444;-87
2023/05/29 05:49:31;;;;;;;1.90;1.63;;;15.00;99.90;;;;;;5093330;28;20452;-87
2023/05/29 05:51:58;;;;;;;2.30;1.73;;;15.20;99.90;;;;;;5093000;28;20498;-87
2023/05/29 05:54:25;;;;;;;2.73;1.57;;;15.30;99.90;;;;;;5093294;28;20471;-87
2023/05/29 05:56:51;;;;;;;2.60;1.60;;;15.40;99.90;;;;;;5093305;28;20539;-87
2023/05/29 05:59:18;;;;;;;4.63;1.97;;;15.50;99.90;;;;;;5096453;28;20455;-87
2023/05/29 06:01:46;;;;;;;2.67;1.97;;;15.70;99.90;;;;;;5096901;28;20448;-87
2023/05/29 06:04:13;;;;;;;1.27;1.17;;;15.80;99.90;;;;;;5096716;28;20464;-88
2023/05/29 06:06:40;;;;;;;2.90;2.50;;;16.00;99.90;;;;;;5096797;28;20523;-88
2023/05/29 06:09:08;;;;;;;6.17;2.17;;;16.20;99.90;;;;;;5096898;28;20444;-87
2023/05/29 06:11:34;;;;;;;5.50;2.00;;;16.40;99.90;;;;;;5096724;28;20479;-87
2023/05/29 06:14:01;;;;;;;2.60;1.50;;;16.60;99.90;;;;;;5096641;28;20455;-87
2023/05/29 06:16:28;;;;;;;3.00;1.57;;;16.70;99.90;;;;;;5096282;28;20539;-88
2023/05/29 06:18:56;;;;;;;2.73;1.60;;;16.90;99.90;;;;;;5096642;28;20944;-88
2023/05/29 06:21:23;;;;;;;3.50;1.70;;;17.10;99.90;;;;;;5096179;28;20491;-87
2023/05/29 06:23:49;;;;;;;1.73;1.47;;;17.30;99.90;;;;;;5096398;28;20448;-88
2023/05/29 06:26:16;;;;;;;3.83;2.00;;;17.50;99.90;;;;;;5096404;28;20465;-87
2023/05/29 06:28:43;;;;;;;3.47;2.60;;;17.80;99.90;;;;;;5096593;28;20440;-88
2023/05/29 06:31:10;;;;;;;4.10;2.20;;;18.10;99.90;;;;;;5097657;28;20467;-87
2023/05/29 06:33:37;;;;;;;3.00;2.00;;;18.40;99.90;;;;;;5096669;28;20440;-87
2023/05/29 06:36:06;;;;;;;3.30;1.90;;;18.70;99.90;;;;;;5096361;28;20460;-88
2023/05/29 06:38:33;;;;;;;3.60;1.83;;;19.00;99.90;;;;;;5096341;28;20542;-88
2023/05/29 06:41:00;;;;;;;9.93;2.47;;;19.30;99.90;;;;;;5096105;28;20447;-87
2023/05/29 06:43:28;;;;;;;2.07;1.63;;;19.50;99.90;;;;;;5096292;28;20786;-88
2023/05/29 06:45:54;;;;;;;5.27;2.37;;;19.70;99.90;;;;;;5095796;28;20475;-87
2023/05/29 06:48:21;;;;;;;5.60;2.30;;;19.80;99.90;;;;;;5095852;28;20954;-87
2023/05/29 06:50:48;;;;;;;4.60;2.23;;;20.00;99.90;;;;;;5095867;28;20483;-87
2023/05/29 06:53:16;;;;;;;2.10;1.73;;;20.00;99.90;;;;;;5096132;28;20452;-87
2023/05/29 06:55:43;;;;;;;4.43;2.30;;;20.10;99.90;;;;;;5095759;28;20470;-87
2023/05/29 06:58:10;;;;;;;2.10;1.97;;;20.10;99.90;;;;;;5095652;28;20455;-87
2023/05/29 07:00:36;;;;;;;4.23;2.17;;;20.20;99.90;;;;;;5095887;28;20447;-87
2023/05/29 07:03:03;;;;;;;5.30;1.93;;;20.30;99.90;;;;;;5095787;28;20458;-88
2023/05/29 07:05:30;;;;;;;2.73;1.93;;;20.40;99.90;;;;;;5096443;28;20470;-87
2023/05/29 07:07:57;;;;;;;4.23;2.20;;;20.60;99.90;;;;;;5095296;28;20447;-87
2023/05/29 07:10:25;;;;;;;1.90;1.50;;;20.70;99.90;;;;;;5095363;28;20450;-88
2023/05/29 07:12:51;;;;;;;3.60;2.20;;;20.90;99.90;;;;;;5095607;28;20451;-88
2023/05/29 07:15:19;;;;;;;3.90;2.33;;;21.20;99.90;;;;;;5095434;28;20467;-87
2023/05/29 07:17:46;;;;;;;2.20;1.57;;;21.50;99.90;;;;;;5095492;28;20431;-88
2023/05/29 07:20:14;;;;;;;4.40;2.27;;;21.80;99.90;;;;;;5094962;28;20998;-87
2023/05/29 07:22:41;;;;;;;3.30;1.67;;;22.10;99.90;;;;;;5095439;28;20443;-88
2023/05/29 07:25:09;;;;;;;2.93;1.93;;;22.40;99.90;;;;;;5095346;28;20447;-88
2023/05/29 07:27:37;;;;;;;3.33;1.77;;;22.70;99.90;;;;;;5095238;28;20201;-88
2023/05/29 07:30:05;;;;;;;5.10;1.87;;;22.90;99.90;;;;;;5095319;28;20182;-88
2023/05/29 07:32:32;;;;;;;2.13;1.55;;;23.40;99.90;;;;;;5094729;28;20225;-88
2023/05/29 07:34:59;;;;;;;2.45;1.95;;;23.90;97.90;;;;;;5094859;28;20271;-88
2023/05/29 07:37:25;;;;;;;1.83;1.40;;;24.50;95.60;;;;;;5095534;28;20186;-88
2023/05/29 07:39:52;;;;;;;1.77;1.67;;;25.20;93.70;;;;;;5094921;28;20205;-86
2023/05/29 07:42:19;;;;;;;1.85;1.73;;;25.90;90.90;;;;;;5094704;28;20193;-88
2023/05/29 07:44:47;;;;;;;2.08;1.20;;;26.70;86.40;;;;;;5095003;28;20312;-89
2023/05/29 07:47:14;;;;;;;3.00;1.88;;;27.50;84.00;;;;;;5094685;28;20204;-87
2023/05/29 07:49:41;;;;;;;1.88;1.73;;;28.40;80.60;;;;;;5094347;28;20202;-85
2023/05/29 07:52:08;;;;;;;3.13;1.95;;;29.60;74.60;;;;;;5095047;28;20224;-86
2023/05/29 07:54:35;;;;;;;1.80;1.50;;;30.90;71.00;;;;;;5094349;28;20217;-86
2023/05/29 07:57:02;;;;;;;1.27;1.17;;;32.20;63.20;;;;;;5094501;28;20207;-86
2023/05/29 07:59:29;;;;;;;1.27;1.13;;;33.30;57.90;;;;;;5094927;28;20219;-86
2023/05/29 08:01:58;;;;;;;1.77;1.42;;;34.00;53.90;;;;;;5094617;28;20202;-88
2023/05/29 08:04:25;;;;;;;2.88;1.77;;;34.00;52.40;;;;;;5095019;28;20229;-87
2023/05/29 08:06:52;;;;;;;2.88;1.13;;;33.50;49.90;;;;;;5093919;28;20587;-87
2023/05/29 08:09:19;;;;;;;1.20;1.10;;;32.90;51.80;;;;;;5094334;28;20202;-87
2023/05/29 08:11:46;;;;;;;1.88;1.77;;;32.50;52.80;;;;;;5095551;28;20225;-89
2023/05/29 08:14:13;;;;;;;3.20;1.17;;;32.10;50.60;;;;;;5097352;28;20225;-89
2023/05/29 08:16:40;;;;;;;1.67;1.40;;;31.60;51.10;;;;;;5096515;28;20203;-86
2023/05/29 08:19:08;;;;;;;1.63;1.52;;;30.80;52.20;;;;;;5095795;28;20297;-88
2023/05/29 08:21:35;;;;;;;0.95;0.90;;;30.30;52.40;;;;;;5094030;28;20221;-88
2023/05/29 08:24:04;;;;;;;1.90;1.38;;;30.00;52.50;;;;;;5094203;28;20211;-85
2023/05/29 08:26:31;;;;;;;1.63;1.20;;;29.50;55.00;;;;;;5095138;28;20213;-88
2023/05/29 08:28:58;;;;;;;1.38;1.27;;;29.20;55.00;;;;;;5094638;28;20575;-87
2023/05/29 08:31:25;;;;;;;2.03;1.20;;;29.00;54.90;;;;;;5094675;28;20218;-86
2023/05/29 08:33:52;;;;;;;1.42;1.33;;;28.90;54.60;;;;;;5093942;28;20205;-87
2023/05/29 08:36:21;;;;;;;2.58;1.45;;;28.90;55.00;;;;;;5094329;28;20209;-86
2023/05/29 08:38:48;;;;;;;1.50;1.40;;;28.90;55.10;;;;;;5093897;28;20206;-84
2023/05/29 08:41:22;;;;;;;3.53;1.65;;;28.70;55.50;;;;;;5094090;28;20209;-86
2023/05/29 08:43:50;;;;;;;2.97;1.65;;;28.40;56.20;;;;;;5094360;28;20189;-89
2023/05/29 08:46:20;;;;;;;3.70;1.58;;;28.10;57.00;;;;;;5094581;28;20258;-87
2023/05/29 08:48:50;;;;;;;1.85;1.58;;;27.70;56.70;;;;;;5094477;28;20253;-87
2023/05/29 08:51:22;;;;;;;1.65;1.55;;;27.30;58.50;;;;;;5094923;28;20205;-86
2023/05/29 08:53:49;;;;;;;3.35;1.80;;;27.10;57.80;;;;;;5094330;28;20185;-85
2023/05/29 08:56:16;;;;;;;2.03;1.70;;;26.70;58.50;;;;;;5094403;28;20201;-89
2023/05/29 08:58:44;;;;;;;1.35;1.25;;;26.60;60.50;;;;;;5094948;28;20612;-89
2023/05/29 09:01:12;;;;;;;1.73;1.63;;;26.70;59.70;;;;;;5094665;28;20197;-88
2023/05/29 09:03:39;;;;;;;1.30;1.17;;;27.10;59.30;;;;;;5094188;28;20259;-87
2023/05/29 09:06:07;;;;;;;1.27;1.10;;;27.50;59.00;;;;;;5094227;28;20225;-87
2023/05/29 09:08:35;;;;;;;1.70;1.13;;;27.70;57.80;;;;;;5094733;28;20327;-88
2023/05/29 09:11:02;;;;;;;2.00;1.38;;;27.70;59.30;;;;;;5094585;28;20201;-88
2023/05/29 09:13:29;;;;;;;2.05;1.35;;;27.50;58.90;;;;;;5094337;28;20205;-86
2023/05/29 09:15:58;;;;;;;1.98;1.67;;;27.10;59.20;;;;;;5094791;28;20221;-88
2023/05/29 09:18:30;;;;;;;3.22;1.98;;;26.60;58.90;;;;;;5094193;28;20205;-88
2023/05/29 09:20:57;;;;;;;1.95;1.70;;;26.10;58.70;;;;;;5094029;28;20291;-87
2023/05/29 09:23:26;;;;;;;6.22;1.60;;;25.60;59.20;;;;;;5094456;28;20198;-87
2023/05/29 09:25:55;;;;;;;2.78;2.10;;;25.40;61.30;;;;;;5094160;28;20222;-86
2023/05/29 09:28:23;;;;;;;5.95;2.05;;;25.20;61.20;;;;;;5094050;28;20198;-86
2023/05/29 09:30:50;;;;;;;1.98;1.65;;;25.10;63.20;;;;;;5093317;28;20250;-86
2023/05/29 09:33:17;;;;;;;1.40;1.20;;;25.10;64.40;;;;;;5097593;28;20221;-87
2023/05/29 09:35:45;;;;;;;2.78;1.83;;;25.10;63.00;;;;;;5102576;28;20778;-86
2023/05/29 09:38:13;;;;;;;2.33;1.50;;;25.10;63.50;;;;;;5098798;28;20566;-87
2023/05/29 09:40:41;;;;;;;2.25;1.73;;;25.10;60.10;;;;;;5098515;28;20197;-86
2023/05/29 09:43:13;;;;;;;2.45;1.45;;;25.00;60.50;;;;;;5097734;28;20204;-85
2023/05/29 09:45:41;;;;;;;2.42;1.77;;;25.00;63.80;;;;;;5097342;28;20227;-86
2023/05/29 09:48:09;;;;;;;1.83;1.65;;;25.10;61.80;;;;;;5097737;28;20201;-86
2023/05/29 09:50:36;;;;;;;3.30;2.03;;;25.10;63.20;;;;;;5097455;28;20197;-86
2023/05/29 09:53:03;;;;;;;4.05;1.38;;;25.10;62.80;;;;;;5097963;28;20221;-87
2023/05/29 09:55:32;;;;;;;4.20;2.03;;;25.10;62.40;;;;;;5097424;28;20224;-88
2023/05/29 09:58:00;;;;;;;3.40;1.27;;;25.00;60.80;;;;;;5097373;28;20288;-87
2023/05/29 10:00:29;;;;;;;1.70;1.52;;;25.00;61.50;;;;;;5097338;28;20194;-86
2023/05/29 10:02:55;;;;;;;2.15;1.95;;;25.00;61.20;;;;;;5097408;28;20197;-86
2023/05/29 10:05:22;;;;;;;2.15;1.95;;;24.90;62.50;;;;;;5097931;28;20225;-87
2023/05/29 10:07:54;;;;;;;3.38;1.88;;;25.00;63.00;;;;;;5097754;28;20651;-87
2023/05/29 10:10:24;;;;;;;2.20;1.67;;;24.90;61.20;;;;;;5097843;28;20189;-88
2023/05/29 10:12:51;;;;;;;2.75;1.83;;;24.70;62.30;;;;;;5097413;28;20659;-86
2023/05/29 10:15:20;;;;;;;3.90;1.93;;;24.70;62.50;;;;;;5097018;28;20709;-86
2023/05/29 10:17:53;;;;;;;3.03;1.67;;;24.60;62.80;;;;;;5097145;28;20612;-87
2023/05/29 10:20:22;;;;;;;1.95;1.77;;;24.70;63.70;;;;;;5096853;28;20232;-88
2023/05/29 10:22:50;;;;;;;2.22;1.58;;;24.70;63.40;;;;;;5097122;28;20197;-87
2023/05/29 10:25:20;;;;;;;1.83;1.50;;;24.70;63.60;;;;;;5096470;28;20292;-84
2023/05/29 10:27:47;;;;;;;1.67;1.57;;;24.70;62.80;;;;;;5097796;28;20201;-88
2023/05/29 10:30:23;;;;;;;2.00;1.53;;;24.60;61.40;;;;;;5098334;28;20296;-88
2023/05/29 10:33:05;;;;;;;1.53;1.30;;;24.40;63.70;;;;;;5098337;28;20262;-88
2023/05/29 10:35:41;;;;;;;3.43;1.97;;;24.40;63.00;;;;;;5096672;28;20225;-89
2023/05/29 10:38:12;;;;;;;1.73;1.63;;;24.40;64.00;;;;;;5097661;28;20273;-88
2023/05/29 10:40:39;;;;;;;3.00;1.80;;;24.40;64.30;;;;;;5097640;28;20194;-87
2023/05/29 10:43:09;;;;;;;1.80;1.70;;;24.40;64.50;;;;;;5095614;28;20232;-87
2023/05/29 10:45:52;;;;;;;1.47;1.10;;;24.40;64.80;;;;;;5096471;28;20217;-86
2023/05/29 10:48:40;;;;;;;7.90;2.63;;;24.40;65.00;;;;;;5096813;28;20218;-89
2023/05/29 10:51:08;;;;;;;3.03;1.97;;;24.50;64.10;;;;;;5096657;28;20190;-86
2023/05/29 10:53:39;;;;;;;2.50;1.93;;;24.50;63.40;;;;;;5096751;28;20640;-90
2023/05/29 10:56:10;;;;;;;2.70;1.50;;;24.60;62.90;;;;;;5096514;28;20222;-86
2023/05/29 10:58:40;;;;;;;2.83;1.80;;;24.60;62.60;;;;;;5096485;28;20209;-87
2023/05/29 11:01:09;;;;;;;2.38;1.52;;;24.80;63.60;;;;;;5096796;28;20194;-85
2023/05/29 11:03:36;;;;;;;2.83;2.05;;;25.00;60.40;;;;;;5096269;28;20198;-88
2023/05/29 11:06:07;;;;;;;2.25;2.05;;;25.40;60.40;;;;;;5096906;28;20232;-87
2023/05/29 11:08:36;;;;;;;2.75;1.88;;;25.50;59.40;;;;;;5095759;28;20193;-89
2023/05/29 11:11:03;;;;;;;1.95;1.27;;;25.50;60.20;;;;;;5094971;28;20685;-86
2023/05/29 11:13:35;;;;;;;1.27;1.17;;;25.40;61.60;;;;;;5095114;28;20574;-85
2023/05/29 11:16:13;;;;;;;1.77;1.45;;;25.30;62.40;;;;;;5095325;28;20225;-86
2023/05/29 11:18:42;;;;;;;2.10;1.58;;;25.20;63.80;;;;;;5095965;28;20224;-86
2023/05/29 11:21:23;;;;;;;1.85;1.33;;;25.20;63.60;;;;;;5095105;28;20237;-86
2023/05/29 11:23:52;;;;;;;3.03;1.67;;;25.20;61.80;;;;;;5095012;28;20633;-88
2023/05/29 11:26:20;;;;;;;2.55;2.03;;;25.10;63.00;;;;;;5096659;28;20221;-87
2023/05/29 11:28:47;;;;;;;1.48;1.30;;;25.10;61.50;;;;;;5096616;28;20229;-86
2023/05/29 11:31:16;;;;;;;1.45;1.35;;;25.00;61.60;;;;;;5095376;28;20205;-86
2023/05/29 11:33:49;;;;;;;1.67;1.50;;;25.00;62.40;;;;;;5095943;28;20229;-87
2023/05/29 11:36:19;;;;;;;1.95;1.60;;;25.10;61.50;;;;;;5096573;28;20212;-89
2023/05/29 11:38:46;;;;;;;1.45;1.27;;;25.00;60.50;;;;;;5096548;28;20690;-86
2023/05/29 11:41:12;;;;;;;2.53;1.27;;;24.80;60.40;;;;;;5095476;28;20193;-87
2023/05/29 11:43:39;;;;;;;2.55;1.63;;;24.60;60.50;;;;;;5095737;28;20201;-86
2023/05/29 11:46:19;;;;;;;1.57;1.43;;;24.50;61.70;;;;;;5095353;28;20227;-85
2023/05/29 11:48:47;;;;;;;2.25;1.42;;;24.50;61.20;;;;;;5095131;28;20190;-88
2023/05/29 11:51:14;;;;;;;1.60;1.50;;;24.40;60.00;;;;;;5094349;28;20201;-85
2023/05/29 11:53:43;;;;;;;1.52;1.42;;;24.50;61.00;;;;;;5094291;28;20727;-85
2023/05/29 11:56:11;;;;;;;1.95;1.85;;;24.50;62.00;;;;;;5095260;28;20218;-87
2023/05/29 11:58:39;;;;;;;5.67;1.70;;;24.60;59.30;;;;;;5096377;28;20201;-86
2023/05/29 12:01:07;;;;;;;5.32;1.77;;;24.50;59.40;;;;;;5094977;28;20217;-87
2023/05/29 12:03:39;;;;;;;5.05;1.38;;;24.50;59.40;;;;;;5094706;28;20205;-87
2023/05/29 12:06:07;;;;;;;1.27;1.17;;;24.50;59.90;;;;;;5095127;28;20229;-86
2023/05/29 12:08:34;;;;;;;1.67;1.03;;;24.50;58.90;;;;;;5094734;28;20203;-87
2023/05/29 12:11:02;;;;;;;4.90;1.52;;;24.50;61.10;;;;;;5094668;28;20201;-87
2023/05/29 12:13:29;;;;;;;1.20;1.05;;;24.60;61.70;;;;;;5094032;28;20226;-90
2023/05/29 12:15:58;;;;;;;2.30;1.67;;;24.60;60.60;;;;;;5100064;28;20235;-90
2023/05/29 12:18:26;;;;;;;1.70;1.40;;;24.60;57.90;;;;;;5097221;28;20197;-91
2023/05/29 12:20:58;;;;;;;2.88;1.50;;;24.50;56.80;;;;;;5096313;28;20237;-91
2023/05/29 12:23:25;;;;;;;2.00;1.30;;;24.30;57.40;;;;;;5095820;28;20230;-90
2023/05/29 12:25:53;;;;;;;1.73;1.00;;;24.20;58.50;;;;;;5095438;28;20221;-91
2023/05/29 12:28:22;;;;;;;3.77;1.13;;;24.10;59.30;;;;;;5100073;28;20227;-87
2023/05/29 12:30:50;;;;;;;1.30;1.20;;;24.10;57.70;;;;;;5100265;28;20684;-91
2023/05/29 12:33:30;;;;;;;1.43;1.20;;;24.00;56.80;;;;;;5100762;28;20312;-88
2023/05/29 12:36:03;;;;;;;2.53;1.40;;;23.90;58.00;;;;;;5107557;28;20227;-90
2023/05/29 12:38:30;;;;;;;1.50;1.40;;;23.90;58.30;;;;;;5099641;28;20268;-85
2023/05/29 12:40:57;;;;;;;2.93;1.73;;;23.80;58.10;;;;;;5101404;28;20198;-86
2023/05/29 12:43:25;;;;;;;2.73;1.50;;;23.80;57.50;;;;;;5101560;28;20435;-89
2023/05/29 12:45:56;;;;;;;7.03;1.90;;;23.80;56.40;;;;;;5102520;28;20226;-89
2023/05/29 12:48:28;;;;;;;1.60;1.23;;;23.80;56.00;;;;;;5100050;28;20190;-90
2023/05/29 12:50:55;;;;;;;3.17;1.63;;;23.70;57.90;;;;;;5101445;28;20193;-91
2023/05/29 12:53:22;;;;;;;2.40;1.20;;;23.80;55.60;;;;;;5098805;28;20225;-90